Time;durP1;ratioP1;P1;durP2;ratioP2;P2;SDS_P1;SDS_P2;PMS_P1;PMS_P2;Temp;Humidity;BMP_temperature;BMP_pressure;BME280_temperature;BME280_humidity;BME280_pressure;Samples;Min_cycle;Max_cycle;Signal;HPM_P1;HPM_P2
2022/11/20 00:00:04;;;;;;;18.38;12.35;;;;;;;;;;5091168;28;20047;-68
2022/11/20 00:02:30;;;;;;;17.05;12.00;;;;;;;;;;5095240;27;20516;-67
2022/11/20 00:04:56;;;;;;;18.50;11.75;;;;;;;;;;5090368;28;20036;-68
2022/11/20 00:07:22;;;;;;;19.02;12.32;;;;;;;;;;5120098;27;20047;-70
2022/11/20 00:09:48;;;;;;;18.20;12.85;;;;;;;;;;5093719;28;20101;-70
2022/11/20 00:12:14;;;;;;;17.88;12.55;;;;;;;;;;5089919;28;20071;-69
2022/11/20 00:14:41;;;;;;;18.67;12.98;;;;;;;;;;5094833;28;20424;-70
2022/11/20 00:17:07;;;;;;;18.77;12.85;;;;;;;;;;5090446;28;20070;-70
2022/11/20 00:19:33;;;;;;;19.42;13.38;;;;;;;;;;5081672;28;20035;-70
2022/11/20 00:21:59;;;;;;;19.20;13.23;;;;;;;;;;5070750;28;20077;-70
2022/11/20 00:24:25;;;;;;;22.17;14.57;;;;;;;;;;5099816;28;20095;-70
2022/11/20 00:26:51;;;;;;;19.75;13.18;;;;;;;;;;5089750;28;20036;-70
2022/11/20 00:29:17;;;;;;;19.85;13.82;;;;;;;;;;5091671;28;20488;-71
2022/11/20 00:31:43;;;;;;;20.25;13.15;;;;;;;;;;5088513;28;20047;-70
2022/11/20 00:34:09;;;;;;;19.25;13.98;;;;;;;;;;5091136;28;20108;-70
2022/11/20 00:36:35;;;;;;;19.95;14.77;;;;;;;;;;5089917;28;20043;-71
2022/11/20 00:39:01;;;;;;;22.15;15.25;;;;;;;;;;5086154;28;20097;-71
2022/11/20 00:41:28;;;;;;;19.13;13.88;;;;;;;;;;5090046;28;20116;-71
2022/11/20 00:43:55;;;;;;;18.95;13.50;;;;;;;;;;5072227;28;20486;-70
2022/11/20 00:46:22;;;;;;;20.90;13.93;;;;;;;;;;5093649;28;20510;-70
2022/11/20 00:48:48;;;;;;;22.73;14.32;;;;;;;;;;5088006;28;20043;-71
2022/11/20 00:51:15;;;;;;;20.08;14.65;;;;;;;;;;5085375;28;20529;-68
2022/11/20 00:53:41;;;;;;;21.58;14.57;;;;;;;;;;5085800;28;20092;-70
2022/11/20 00:56:09;;;;;;;18.58;13.70;;;;;;;;;;5089510;28;20409;-69
2022/11/20 00:58:37;;;;;;;20.05;14.48;;;;;;;;;;5087928;28;20047;-69
2022/11/20 01:01:09;;;;;;;19.65;14.38;;;;;;;;;;5086862;28;20079;-73
2022/11/20 01:03:37;;;;;;;19.48;14.13;;;;;;;;;;5095960;28;20122;-69
2022/11/20 01:06:04;;;;;;;21.98;14.45;;;;;;;;;;5072375;28;20043;-70
2022/11/20 01:08:31;;;;;;;21.20;13.85;;;;;;;;;;5087652;27;20047;-69
2022/11/20 01:11:05;;;;;;;23.08;15.20;;;;;;;;;;5107055;28;20085;-69
2022/11/20 01:13:37;;;;;;;22.88;15.23;;;;;;;;;;5084305;28;20043;-70
2022/11/20 01:16:08;;;;;;;20.10;14.63;;;;;;;;;;5089332;28;20047;-69
2022/11/20 01:18:34;;;;;;;21.45;14.98;;;;;;;;;;5093630;28;20153;-69
2022/11/20 01:21:02;;;;;;;24.38;15.57;;;;;;;;;;5087601;28;20040;-73
2022/11/20 01:23:30;;;;;;;22.25;15.20;;;;;;;;;;5083784;28;20040;-71
2022/11/20 01:25:56;;;;;;;20.33;15.63;;;;;;;;;;5091332;28;20084;-69
2022/11/20 01:28:22;;;;;;;22.20;14.98;;;;;;;;;;5091110;28;20139;-69
2022/11/20 01:30:48;;;;;;;24.65;15.82;;;;;;;;;;5088007;28;20051;-69
2022/11/20 01:33:14;;;;;;;23.73;15.52;;;;;;;;;;5110880;28;20047;-69
2022/11/20 01:35:40;;;;;;;21.95;16.20;;;;;;;;;;5108238;28;20556;-69
2022/11/20 01:38:06;;;;;;;25.02;16.88;;;;;;;;;;5085271;28;20131;-69
2022/11/20 01:40:32;;;;;;;21.92;15.75;;;;;;;;;;5087515;28;20043;-71
2022/11/20 01:43:30;;;;;;;21.90;15.52;;;;;;;;;;5085465;28;20440;-71
2022/11/20 01:45:59;;;;;;;22.65;15.85;;;;;;;;;;5045798;28;20044;-70
2022/11/20 01:48:27;;;;;;;23.77;15.73;;;;;;;;;;5088875;28;20044;-70
2022/11/20 01:50:53;;;;;;;22.63;15.50;;;;;;;;;;5085348;28;20046;-70
2022/11/20 01:53:21;;;;;;;25.23;16.70;;;;;;;;;;5092678;28;20043;-69
2022/11/20 01:55:53;;;;;;;23.23;15.68;;;;;;;;;;5080198;28;20043;-69
2022/11/20 01:58:20;;;;;;;23.02;16.00;;;;;;;;;;5091456;28;20100;-69
2022/11/20 02:00:46;;;;;;;23.30;15.95;;;;;;;;;;5082969;28;20059;-70
2022/11/20 02:03:16;;;;;;;22.80;16.15;;;;;;;;;;5081091;28;20040;-71
2022/11/20 02:06:00;;;;;;;21.73;15.57;;;;;;;;;;5095278;27;20067;-69
2022/11/20 02:08:26;;;;;;;22.58;15.52;;;;;;;;;;5087516;28;20663;-69
2022/11/20 02:10:52;;;;;;;20.35;15.07;;;;;;;;;;5072728;28;20040;-70
2022/11/20 02:16:03;;;;;;;24.77;16.20;;;;;;;;;;5106711;27;20435;-70
2022/11/20 02:18:30;;;;;;;23.05;16.10;;;;;;;;;;5088464;28;20044;-69
2022/11/20 02:21:19;;;;;;;23.95;17.15;;;;;;;;;;5079860;28;20039;-70
2022/11/20 02:24:00;;;;;;;23.67;15.90;;;;;;;;;;5084763;28;20047;-69
2022/11/20 02:26:28;;;;;;;21.92;15.50;;;;;;;;;;5089736;28;20044;-72
2022/11/20 02:28:55;;;;;;;21.58;15.60;;;;;;;;;;5092915;28;20047;-70
2022/11/20 02:31:21;;;;;;;23.42;16.73;;;;;;;;;;5090482;28;20049;-71
2022/11/20 02:33:46;;;;;;;23.00;16.33;;;;;;;;;;5083217;28;20421;-69
2022/11/20 02:36:15;;;;;;;25.55;17.10;;;;;;;;;;5091560;28;20054;-69
2022/11/20 02:38:41;;;;;;;24.35;17.00;;;;;;;;;;5088731;28;20054;-69
2022/11/20 02:41:07;;;;;;;22.30;16.42;;;;;;;;;;5096398;28;20047;-72
2022/11/20 02:43:33;;;;;;;22.52;16.08;;;;;;;;;;5089190;28;20118;-72
2022/11/20 02:45:59;;;;;;;23.90;16.52;;;;;;;;;;5088689;28;20394;-73
2022/11/20 02:48:25;;;;;;;22.88;16.13;;;;;;;;;;5089487;28;20048;-72
2022/11/20 02:50:51;;;;;;;23.98;16.50;;;;;;;;;;5089712;28;20044;-72
2022/11/20 02:53:17;;;;;;;22.65;16.00;;;;;;;;;;5091241;28;20077;-69
2022/11/20 02:55:43;;;;;;;22.73;16.40;;;;;;;;;;5091334;28;20486;-72
2022/11/20 02:58:09;;;;;;;25.23;17.10;;;;;;;;;;5089743;28;20048;-72
2022/11/20 03:00:35;;;;;;;22.33;16.35;;;;;;;;;;5088089;28;20054;-72
2022/11/20 03:03:01;;;;;;;25.20;16.38;;;;;;;;;;5090935;28;20040;-72
2022/11/20 03:05:27;;;;;;;22.08;16.02;;;;;;;;;;5092389;28;20050;-71
2022/11/20 03:07:53;;;;;;;19.55;15.00;;;;;;;;;;5087804;28;20039;-71
2022/11/20 03:10:19;;;;;;;21.25;15.77;;;;;;;;;;5091581;28;20494;-72
2022/11/20 03:12:45;;;;;;;22.52;16.35;;;;;;;;;;5091131;28;20043;-71
2022/11/20 03:15:11;;;;;;;22.48;16.05;;;;;;;;;;5074600;28;20096;-71
2022/11/20 03:17:37;;;;;;;20.52;15.70;;;;;;;;;;5105829;28;20040;-72
2022/11/20 03:20:04;;;;;;;22.83;15.45;;;;;;;;;;5090831;28;20051;-71
2022/11/20 03:22:30;;;;;;;22.35;16.05;;;;;;;;;;5092359;28;20134;-71
2022/11/20 03:24:56;;;;;;;22.15;15.88;;;;;;;;;;5094430;28;20075;-71
2022/11/20 03:27:22;;;;;;;21.02;15.43;;;;;;;;;;5095198;28;20031;-71
2022/11/20 03:29:48;;;;;;;21.35;15.82;;;;;;;;;;5096026;28;20513;-72
2022/11/20 03:32:14;;;;;;;21.70;15.85;;;;;;;;;;5088998;28;20051;-70
2022/11/20 03:34:40;;;;;;;21.70;15.60;;;;;;;;;;5089304;28;20044;-69
2022/11/20 03:37:06;;;;;;;22.13;15.38;;;;;;;;;;5094033;27;20031;-70
2022/11/20 03:39:32;;;;;;;21.10;15.80;;;;;;;;;;5091228;28;20061;-69
2022/11/20 03:41:58;;;;;;;22.90;16.20;;;;;;;;;;5091668;28;20035;-69
2022/11/20 03:44:24;;;;;;;20.98;15.23;;;;;;;;;;5094340;28;20035;-69
2022/11/20 03:46:50;;;;;;;21.30;15.63;;;;;;;;;;5095453;28;20062;-70
2022/11/20 03:49:16;;;;;;;21.98;16.15;;;;;;;;;;5090336;28;20036;-69
2022/11/20 03:51:42;;;;;;;24.83;15.80;;;;;;;;;;5091369;28;20044;-70
2022/11/20 03:54:09;;;;;;;23.60;15.20;;;;;;;;;;5093248;28;20585;-70
2022/11/20 03:56:36;;;;;;;20.95;15.77;;;;;;;;;;5091081;28;20478;-69
2022/11/20 03:59:02;;;;;;;20.05;14.55;;;;;;;;;;5097921;28;20521;-69
2022/11/20 04:01:30;;;;;;;21.95;15.60;;;;;;;;;;5094323;28;20048;-70
2022/11/20 04:03:56;;;;;;;20.30;15.25;;;;;;;;;;5095865;28;20043;-70
2022/11/20 04:06:23;;;;;;;18.65;13.95;;;;;;;;;;5090831;28;20035;-70
2022/11/20 04:08:50;;;;;;;19.45;15.02;;;;;;;;;;5094650;28;20553;-70
2022/11/20 04:11:17;;;;;;;20.48;15.25;;;;;;;;;;5083561;28;20142;-69
2022/11/20 04:13:46;;;;;;;22.45;15.77;;;;;;;;;;5090608;28;20564;-70
2022/11/20 04:16:12;;;;;;;21.92;15.02;;;;;;;;;;5093308;28;20496;-70
2022/11/20 04:18:38;;;;;;;20.65;14.80;;;;;;;;;;5086344;28;20048;-70
2022/11/20 04:21:04;;;;;;;21.08;15.13;;;;;;;;;;5111697;28;20039;-70
2022/11/20 04:23:30;;;;;;;20.88;15.57;;;;;;;;;;5090473;28;20039;-70
2022/11/20 04:26:01;;;;;;;22.02;14.88;;;;;;;;;;5088593;28;20097;-70
2022/11/20 04:28:27;;;;;;;18.77;14.40;;;;;;;;;;5089801;28;20048;-70
2022/11/20 04:30:53;;;;;;;20.33;15.10;;;;;;;;;;5089095;28;20441;-71
2022/11/20 04:33:19;;;;;;;21.90;15.93;;;;;;;;;;5092637;28;20108;-71
2022/11/20 04:35:46;;;;;;;23.77;14.80;;;;;;;;;;5093719;28;20387;-70
2022/11/20 04:38:12;;;;;;;24.45;14.82;;;;;;;;;;5077321;28;20040;-70
2022/11/20 04:40:38;;;;;;;19.63;14.32;;;;;;;;;;5092855;28;20093;-70
2022/11/20 04:43:04;;;;;;;21.30;15.30;;;;;;;;;;5090534;28;20053;-72
2022/11/20 04:45:30;;;;;;;21.75;15.45;;;;;;;;;;5090730;28;20046;-71
2022/11/20 04:47:56;;;;;;;21.48;15.10;;;;;;;;;;5087790;28;20145;-70
2022/11/20 04:50:22;;;;;;;20.65;15.65;;;;;;;;;;5089539;28;20040;-72
2022/11/20 04:52:48;;;;;;;20.42;14.80;;;;;;;;;;5084155;28;20126;-73
2022/11/20 04:55:14;;;;;;;20.27;14.40;;;;;;;;;;5084766;28;20077;-71
2022/11/20 04:57:39;;;;;;;22.73;16.10;;;;;;;;;;5088694;28;20052;-72
2022/11/20 05:00:06;;;;;;;22.33;15.82;;;;;;;;;;5088205;28;20061;-71
2022/11/20 05:02:32;;;;;;;20.02;15.10;;;;;;;;;;5088366;28;20040;-71
2022/11/20 05:04:58;;;;;;;20.48;14.98;;;;;;;;;;5089231;28;20065;-71
2022/11/20 05:07:24;;;;;;;23.02;14.75;;;;;;;;;;5089684;28;20040;-70
2022/11/20 05:09:50;;;;;;;22.83;16.42;;;;;;;;;;5088595;28;20080;-69
2022/11/20 05:12:16;;;;;;;21.98;15.50;;;;;;;;;;5085254;28;20513;-69
2022/11/20 05:14:42;;;;;;;20.48;15.82;;;;;;;;;;5091332;28;20032;-71
2022/11/20 05:17:10;;;;;;;23.92;16.10;;;;;;;;;;5090574;28;20047;-72
2022/11/20 05:19:36;;;;;;;20.38;15.52;;;;;;;;;;5087988;28;20048;-72
2022/11/20 05:22:02;;;;;;;18.88;15.32;;;;;;;;;;5109250;27;20046;-72
2022/11/20 05:24:28;;;;;;;22.05;14.73;;;;;;;;;;5089992;28;20043;-71
2022/11/20 05:26:54;;;;;;;20.73;15.68;;;;;;;;;;5090096;28;20047;-71
2022/11/20 05:29:20;;;;;;;21.92;16.00;;;;;;;;;;5089147;28;20128;-71
2022/11/20 05:31:46;;;;;;;20.23;15.02;;;;;;;;;;5093991;28;20047;-72
2022/11/20 05:34:12;;;;;;;22.15;15.77;;;;;;;;;;5087903;28;20048;-71
2022/11/20 05:36:38;;;;;;;19.48;14.63;;;;;;;;;;5090003;28;20413;-71
2022/11/20 05:39:04;;;;;;;19.20;14.32;;;;;;;;;;5088200;28;20130;-71
2022/11/20 05:41:30;;;;;;;21.42;15.85;;;;;;;;;;5087982;28;20130;-72
2022/11/20 05:43:57;;;;;;;22.60;16.50;;;;;;;;;;5087887;28;20036;-71
2022/11/20 05:46:23;;;;;;;20.58;14.98;;;;;;;;;;5087527;28;20095;-71
2022/11/20 05:48:50;;;;;;;21.83;15.20;;;;;;;;;;5088975;28;20035;-71
2022/11/20 05:51:17;;;;;;;23.30;16.08;;;;;;;;;;5087640;28;20581;-70
2022/11/20 05:53:43;;;;;;;22.38;16.20;;;;;;;;;;5089224;28;20046;-69
2022/11/20 05:56:11;;;;;;;21.77;15.70;;;;;;;;;;5088654;28;20137;-71
2022/11/20 05:58:37;;;;;;;22.58;16.30;;;;;;;;;;5091028;28;20413;-71
2022/11/20 06:01:11;;;;;;;21.05;15.05;;;;;;;;;;5090467;28;20096;-70
2022/11/20 06:03:38;;;;;;;20.33;15.82;;;;;;;;;;5085776;28;20040;-69
2022/11/20 06:06:05;;;;;;;24.75;15.93;;;;;;;;;;5072889;28;20055;-69
2022/11/20 06:08:31;;;;;;;20.83;15.38;;;;;;;;;;5072407;28;20055;-70
2022/11/20 06:10:57;;;;;;;19.88;15.30;;;;;;;;;;5106137;28;20127;-70
2022/11/20 06:13:23;;;;;;;20.85;15.30;;;;;;;;;;5072092;28;20193;-69
2022/11/20 06:15:53;;;;;;;19.80;14.77;;;;;;;;;;5089961;28;20044;-69
2022/11/20 06:18:19;;;;;;;22.65;15.52;;;;;;;;;;5072696;28;20047;-70
2022/11/20 06:20:46;;;;;;;19.23;14.60;;;;;;;;;;5076377;27;20374;-70
2022/11/20 06:23:12;;;;;;;19.95;14.95;;;;;;;;;;5091043;28;20043;-69
2022/11/20 06:25:39;;;;;;;19.08;13.98;;;;;;;;;;5085571;28;20044;-69
2022/11/20 06:28:05;;;;;;;23.15;14.68;;;;;;;;;;5093453;28;20043;-70
2022/11/20 06:30:31;;;;;;;18.92;13.98;;;;;;;;;;5087237;28;20491;-70
2022/11/20 06:32:57;;;;;;;20.52;14.25;;;;;;;;;;5090101;28;20074;-71
2022/11/20 06:35:23;;;;;;;21.10;15.23;;;;;;;;;;5094315;28;20051;-69
2022/11/20 06:37:49;;;;;;;18.30;13.98;;;;;;;;;;5108225;28;20048;-69
2022/11/20 06:40:15;;;;;;;18.88;14.10;;;;;;;;;;5090775;28;20039;-72
2022/11/20 06:42:41;;;;;;;22.40;14.20;;;;;;;;;;5081031;28;20490;-72
2022/11/20 06:45:07;;;;;;;21.58;14.07;;;;;;;;;;5082219;28;20051;-72
2022/11/20 06:47:33;;;;;;;18.35;14.30;;;;;;;;;;5086798;28;20039;-72
2022/11/20 06:49:59;;;;;;;18.58;13.48;;;;;;;;;;5073188;28;20082;-71
2022/11/20 06:52:25;;;;;;;20.23;15.48;;;;;;;;;;5086097;28;20063;-72
2022/11/20 06:54:51;;;;;;;19.48;14.23;;;;;;;;;;5088595;28;20043;-72
2022/11/20 06:57:17;;;;;;;20.08;14.15;;;;;;;;;;5087439;28;20054;-69
2022/11/20 06:59:43;;;;;;;19.52;14.15;;;;;;;;;;5089839;28;20508;-69
2022/11/20 07:02:12;;;;;;;22.48;14.30;;;;;;;;;;5085918;28;20039;-69
2022/11/20 07:04:39;;;;;;;20.85;14.35;;;;;;;;;;5087437;28;20069;-70
2022/11/20 07:07:08;;;;;;;19.33;14.13;;;;;;;;;;5106157;28;20040;-69
2022/11/20 07:09:34;;;;;;;18.75;14.55;;;;;;;;;;5089992;28;20047;-72
2022/11/20 07:12:00;;;;;;;17.45;13.20;;;;;;;;;;5085032;28;20047;-71
2022/11/20 07:14:26;;;;;;;19.30;14.32;;;;;;;;;;5085932;28;20109;-71
2022/11/20 07:16:52;;;;;;;18.20;14.02;;;;;;;;;;5086466;28;20067;-70
2022/11/20 07:19:18;;;;;;;19.60;14.20;;;;;;;;;;5090584;28;20421;-71
2022/11/20 07:21:44;;;;;;;18.85;13.55;;;;;;;;;;5090613;28;20137;-72
2022/11/20 07:24:10;;;;;;;18.00;14.20;;;;;;;;;;5085192;28;20094;-72
2022/11/20 07:26:36;;;;;;;19.98;14.18;;;;;;;;;;5089937;28;20047;-69
2022/11/20 07:29:03;;;;;;;18.75;13.60;;;;;;;;;;5091207;28;20039;-69
2022/11/20 07:31:29;;;;;;;20.15;13.88;;;;;;;;;;5087373;28;20495;-72
2022/11/20 07:33:55;;;;;;;18.70;14.07;;;;;;;;;;5107760;28;20047;-71
2022/11/20 07:36:21;;;;;;;17.13;12.95;;;;;;;;;;5090255;28;20677;-69
2022/11/20 07:38:47;;;;;;;19.77;13.48;;;;;;;;;;5088191;28;20074;-69
2022/11/20 07:41:13;;;;;;;16.73;12.82;;;;;;;;;;5083501;28;20067;-69
2022/11/20 07:43:39;;;;;;;18.02;13.55;;;;;;;;;;5088355;28;20039;-69
2022/11/20 07:46:05;;;;;;;17.75;12.95;;;;;;;;;;5088227;28;20047;-72
2022/11/20 07:48:31;;;;;;;17.10;12.95;;;;;;;;;;5083446;28;20040;-71
2022/11/20 07:50:57;;;;;;;17.38;12.77;;;;;;;;;;5080154;28;20097;-72
2022/11/20 07:53:23;;;;;;;18.83;12.57;;;;;;;;;;5089591;28;20047;-71
2022/11/20 07:55:52;;;;;;;19.17;12.95;;;;;;;;;;5084694;28;20539;-72
2022/11/20 07:58:18;;;;;;;17.65;13.18;;;;;;;;;;5084844;28;20058;-67
2022/11/20 08:00:44;;;;;;;17.85;13.25;;;;;;;;;;5081449;28;20039;-71
2022/11/20 08:03:10;;;;;;;19.48;12.93;;;;;;;;;;5091839;28;20047;-71
2022/11/20 08:05:37;;;;;;;16.77;13.30;;;;;;;;;;5089524;28;20103;-72
2022/11/20 08:08:03;;;;;;;16.40;12.90;;;;;;;;;;5089853;28;20047;-72
2022/11/20 08:10:29;;;;;;;18.92;13.05;;;;;;;;;;5094313;27;20085;-73
2022/11/20 08:15:40;;;;;;;18.00;13.65;;;;;;;;;;5089887;27;20082;-72
2022/11/20 08:18:11;;;;;;;18.15;12.70;;;;;;;;;;5093868;27;20043;-71
2022/11/20 08:20:37;;;;;;;17.55;13.45;;;;;;;;;;5095451;28;20041;-72
2022/11/20 08:23:07;;;;;;;18.08;13.30;;;;;;;;;;5090302;28;20043;-73
2022/11/20 08:25:34;;;;;;;18.38;13.93;;;;;;;;;;5088749;27;20093;-72
2022/11/20 08:28:00;;;;;;;18.13;13.88;;;;;;;;;;5085092;28;20043;-72
2022/11/20 08:30:27;;;;;;;18.20;13.68;;;;;;;;;;5091746;28;20720;-69
2022/11/20 08:32:53;;;;;;;20.15;14.20;;;;;;;;;;5092844;27;20062;-70
2022/11/20 08:35:20;;;;;;;18.40;13.65;;;;;;;;;;5088370;28;20044;-72
2022/11/20 08:37:49;;;;;;;19.88;14.35;;;;;;;;;;5090196;27;20133;-71
2022/11/20 08:40:15;;;;;;;20.85;14.75;;;;;;;;;;5095090;28;20040;-72
2022/11/20 08:42:51;;;;;;;20.98;15.30;;;;;;;;;;5092241;27;20040;-71
2022/11/20 08:45:18;;;;;;;18.35;13.82;;;;;;;;;;5109628;27;20779;-72
2022/11/20 08:47:45;;;;;;;19.67;14.73;;;;;;;;;;5088868;28;20064;-72
2022/11/20 08:50:12;;;;;;;21.35;14.40;;;;;;;;;;5086848;28;20054;-72
2022/11/20 08:52:38;;;;;;;17.65;13.75;;;;;;;;;;5088376;28;20428;-72
2022/11/20 08:55:05;;;;;;;19.27;14.07;;;;;;;;;;5082101;28;20130;-72
2022/11/20 08:57:34;;;;;;;21.75;13.88;;;;;;;;;;5087637;28;20044;-72
2022/11/20 09:00:00;;;;;;;17.73;14.15;;;;;;;;;;5089851;28;20456;-70
2022/11/20 09:02:26;;;;;;;16.50;13.20;;;;;;;;;;5086366;28;20100;-70
2022/11/20 09:04:53;;;;;;;18.83;13.88;;;;;;;;;;5089286;28;20116;-70
2022/11/20 09:07:19;;;;;;;16.92;13.40;;;;;;;;;;5086322;28;20040;-72
2022/11/20 09:09:45;;;;;;;17.33;11.93;;;;;;;;;;5086268;28;20044;-72
2022/11/20 09:12:11;;;;;;;17.80;12.88;;;;;;;;;;5072891;28;20506;-72
2022/11/20 09:14:37;;;;;;;16.95;12.82;;;;;;;;;;5106224;28;20052;-72
2022/11/20 09:17:03;;;;;;;17.13;13.30;;;;;;;;;;5086860;28;20046;-72
2022/11/20 09:19:29;;;;;;;18.45;12.27;;;;;;;;;;5089578;28;20043;-71
2022/11/20 09:21:55;;;;;;;17.23;13.00;;;;;;;;;;5087063;28;20540;-71
2022/11/20 09:24:21;;;;;;;16.80;12.48;;;;;;;;;;5091742;28;20101;-72
2022/11/20 09:26:47;;;;;;;16.77;12.73;;;;;;;;;;5084815;28;20043;-70
2022/11/20 09:29:13;;;;;;;17.13;12.55;;;;;;;;;;5089500;28;20477;-72
2022/11/20 09:31:39;;;;;;;15.48;12.43;;;;;;;;;;5087002;28;20051;-71
2022/11/20 09:34:05;;;;;;;16.50;12.07;;;;;;;;;;5084577;28;20125;-69
2022/11/20 09:36:31;;;;;;;17.90;12.63;;;;;;;;;;5108150;27;20413;-70
2022/11/20 09:38:57;;;;;;;15.27;11.75;;;;;;;;;;5087917;28;20047;-69
2022/11/20 09:41:42;;;;;;;16.67;12.40;;;;;;;;;;5070875;27;20031;-69
2022/11/20 09:44:08;;;;;;;16.00;12.23;;;;;;;;;;5089045;28;20044;-69
2022/11/20 09:46:39;;;;;;;15.88;12.40;;;;;;;;;;5089203;28;20090;-70
2022/11/20 09:49:20;;;;;;;14.75;11.00;;;;;;;;;;5087400;27;20069;-69
2022/11/20 09:51:49;;;;;;;12.32;10.23;;;;;;;;;;5085770;28;20075;-69
2022/11/20 09:54:17;;;;;;;12.73;10.25;;;;;;;;;;5082391;28;20050;-68
2022/11/20 09:57:07;;;;;;;14.20;11.80;;;;;;;;;;5090221;28;20052;-70
2022/11/20 09:59:33;;;;;;;14.18;10.45;;;;;;;;;;5080100;28;20104;-68
2022/11/20 10:01:59;;;;;;;15.63;11.00;;;;;;;;;;5090257;27;20042;-69
2022/11/20 10:04:25;;;;;;;13.23;10.65;;;;;;;;;;5088081;28;20047;-68
2022/11/20 10:07:04;;;;;;;17.00;11.13;;;;;;;;;;5086939;28;20044;-70
2022/11/20 10:09:31;;;;;;;12.95;10.05;;;;;;;;;;5105731;28;20126;-70
2022/11/20 10:12:02;;;;;;;13.30;10.48;;;;;;;;;;5091706;28;20494;-68
2022/11/20 10:14:46;;;;;;;13.82;10.43;;;;;;;;;;5090516;28;20508;-69
2022/11/20 10:17:18;;;;;;;15.25;11.05;;;;;;;;;;5086851;28;20514;-69
2022/11/20 10:20:14;;;;;;;13.35;10.70;;;;;;;;;;5087928;28;20039;-71
2022/11/20 10:22:40;;;;;;;14.18;9.23;;;;;;;;;;5071062;28;20043;-70
2022/11/20 10:25:25;;;;;;;13.40;9.82;;;;;;;;;;5108451;27;20367;-69
2022/11/20 10:27:51;;;;;;;13.13;9.88;;;;;;;;;;5097348;28;20032;-71
2022/11/20 10:30:18;;;;;;;12.75;9.38;;;;;;;;;;5071332;28;20050;-70
2022/11/20 10:32:49;;;;;;;12.15;9.85;;;;;;;;;;5086993;27;22172;-68
2022/11/20 10:35:15;;;;;;;12.70;9.68;;;;;;;;;;5105710;28;20043;-70
2022/11/20 10:37:46;;;;;;;12.45;10.25;;;;;;;;;;5085987;28;20552;-71
2022/11/20 10:40:31;;;;;;;12.68;9.77;;;;;;;;;;5085882;28;20383;-69
2022/11/20 10:42:59;;;;;;;12.40;9.13;;;;;;;;;;5092510;28;20092;-69
2022/11/20 10:45:25;;;;;;;11.25;8.25;;;;;;;;;;5086809;28;20074;-70
2022/11/20 10:47:53;;;;;;;10.98;8.55;;;;;;;;;;5085430;28;20085;-69
2022/11/20 10:50:20;;;;;;;9.93;8.05;;;;;;;;;;5089366;28;20048;-69
2022/11/20 10:52:49;;;;;;;9.48;7.43;;;;;;;;;;5080484;28;20128;-67
2022/11/20 10:55:18;;;;;;;8.77;7.13;;;;;;;;;;5090490;28;20112;-68
2022/11/20 10:57:50;;;;;;;9.88;7.50;;;;;;;;;;5082404;28;20039;-70
2022/11/20 11:00:17;;;;;;;10.93;7.50;;;;;;;;;;5084077;28;20047;-70
2022/11/20 11:02:50;;;;;;;11.18;7.32;;;;;;;;;;5086326;28;20035;-67
2022/11/20 11:05:34;;;;;;;9.82;8.15;;;;;;;;;;5086324;28;20039;-67
2022/11/20 11:08:00;;;;;;;10.30;7.80;;;;;;;;;;5088914;28;20382;-68
2022/11/20 11:10:36;;;;;;;10.32;8.05;;;;;;;;;;5088991;28;20056;-68
2022/11/20 11:13:02;;;;;;;11.00;8.38;;;;;;;;;;5087647;28;20043;-67
2022/11/20 11:15:39;;;;;;;9.52;7.70;;;;;;;;;;5084311;28;20039;-67
2022/11/20 11:18:09;;;;;;;9.27;7.30;;;;;;;;;;5084078;28;20166;-67
2022/11/20 11:20:36;;;;;;;8.52;7.20;;;;;;;;;;5106038;28;20047;-68
2022/11/20 11:23:02;;;;;;;8.82;7.05;;;;;;;;;;5085591;28;20039;-67
2022/11/20 11:25:30;;;;;;;9.30;7.32;;;;;;;;;;5086480;28;20039;-66
2022/11/20 11:27:59;;;;;;;9.80;7.50;;;;;;;;;;5086015;28;20043;-67
2022/11/20 11:30:26;;;;;;;8.35;7.20;;;;;;;;;;5089588;28;20529;-68
2022/11/20 11:33:03;;;;;;;9.98;6.95;;;;;;;;;;5100584;28;20376;-69
2022/11/20 11:35:29;;;;;;;8.55;7.03;;;;;;;;;;5085193;28;20071;-69
2022/11/20 11:38:02;;;;;;;8.40;6.80;;;;;;;;;;5087962;28;20094;-67
2022/11/20 11:40:30;;;;;;;8.98;7.85;;;;;;;;;;5091879;28;20245;-69
2022/11/20 11:43:01;;;;;;;10.38;8.10;;;;;;;;;;5111800;28;20040;-68
2022/11/20 11:45:28;;;;;;;11.20;8.70;;;;;;;;;;5098879;28;20481;-68
2022/11/20 11:47:56;;;;;;;10.45;8.18;;;;;;;;;;5089928;28;20127;-67
2022/11/20 11:50:25;;;;;;;10.30;8.68;;;;;;;;;;5087492;28;20505;-67
2022/11/20 11:53:04;;;;;;;9.90;8.18;;;;;;;;;;5108420;28;20439;-67
2022/11/20 11:55:32;;;;;;;11.00;8.75;;;;;;;;;;5090078;28;20054;-67
2022/11/20 11:58:11;;;;;;;10.88;8.43;;;;;;;;;;5105253;28;20044;-67
2022/11/20 12:00:38;;;;;;;10.43;7.80;;;;;;;;;;5083073;28;20043;-67
2022/11/20 12:03:13;;;;;;;11.40;9.02;;;;;;;;;;5088587;28;20039;-68
2022/11/20 12:05:42;;;;;;;10.63;8.48;;;;;;;;;;5090714;28;20040;-67
2022/11/20 12:08:23;;;;;;;12.38;8.52;;;;;;;;;;5091068;28;20044;-67
2022/11/20 12:10:52;;;;;;;10.63;9.27;;;;;;;;;;5091034;28;20058;-66
2022/11/20 12:13:22;;;;;;;10.43;8.73;;;;;;;;;;5081521;28;20044;-66
2022/11/20 12:15:48;;;;;;;9.88;8.65;;;;;;;;;;5107229;28;20035;-67
2022/11/20 12:18:20;;;;;;;10.93;9.00;;;;;;;;;;5088751;28;20044;-67
2022/11/20 12:20:58;;;;;;;10.15;8.88;;;;;;;;;;5101651;28;20039;-66
2022/11/20 12:23:31;;;;;;;10.23;8.65;;;;;;;;;;5092483;28;20050;-66
2022/11/20 12:25:57;;;;;;;;;;;;;;;;;;5093261;27;20378;-67
2022/11/20 12:28:43;;;;;;;11.50;9.27;;;;;;;;;;5093763;28;19922;-66
2022/11/20 12:31:23;;;;;;;11.88;9.20;;;;;;;;;;5101252;27;20052;-67
2022/11/20 12:33:54;;;;;;;14.05;9.57;;;;;;;;;;5087839;28;20040;-67
2022/11/20 12:36:32;;;;;;;11.15;9.35;;;;;;;;;;5110696;27;20049;-67
2022/11/20 12:39:10;;;;;;;11.60;9.52;;;;;;;;;;5111762;28;20414;-66
2022/11/20 12:45:10;;;;;;;11.65;9.95;;;;;;;;;;5093708;28;20043;-66
2022/11/20 12:47:58;;;;;;;12.27;10.00;;;;;;;;;;5074864;28;20100;-68
2022/11/20 12:50:46;;;;;;;13.23;10.25;;;;;;;;;;5090429;27;20039;-68
2022/11/20 12:53:25;;;;;;;12.65;9.88;;;;;;;;;;5107130;28;20039;-67
2022/11/20 12:56:10;;;;;;;10.65;9.43;;;;;;;;;;5092011;28;20039;-68
2022/11/20 12:58:55;;;;;;;12.35;9.40;;;;;;;;;;5105071;27;20056;-68
2022/11/20 13:01:39;;;;;;;10.85;9.52;;;;;;;;;;5105964;27;20052;-68
2022/11/20 13:04:24;;;;;;;12.65;10.07;;;;;;;;;;5104797;27;20054;-67
2022/11/20 13:06:50;;;;;;;12.20;10.15;;;;;;;;;;5093219;28;20043;-68
2022/11/20 13:09:19;;;;;;;12.00;10.07;;;;;;;;;;5093406;28;20087;-68
2022/11/20 13:11:52;;;;;;;12.35;9.65;;;;;;;;;;5091099;28;20054;-67
2022/11/20 13:14:34;;;;;;;11.90;10.50;;;;;;;;;;5109974;27;20047;-68
2022/11/20 13:17:05;;;;;;;11.07;9.90;;;;;;;;;;5087435;28;20108;-68
2022/11/20 13:19:31;;;;;;;12.73;10.68;;;;;;;;;;5100142;28;20070;-67
2022/11/20 13:21:57;;;;;;;12.52;10.15;;;;;;;;;;5110743;28;20035;-68
2022/11/20 13:24:29;;;;;;;12.90;9.95;;;;;;;;;;5099224;28;20050;-68
2022/11/20 13:27:03;;;;;;;12.45;10.23;;;;;;;;;;5087291;28;20047;-68
2022/11/20 13:29:29;;;;;;;13.55;10.57;;;;;;;;;;5090875;28;20047;-67
2022/11/20 13:32:03;;;;;;;14.98;10.60;;;;;;;;;;5088566;28;20047;-67
2022/11/20 13:34:29;;;;;;;11.93;10.48;;;;;;;;;;5092153;28;20058;-67
2022/11/20 13:36:57;;;;;;;10.98;9.82;;;;;;;;;;5075415;28;20122;-67
2022/11/20 13:39:33;;;;;;;12.90;10.68;;;;;;;;;;5091377;28;20060;-68
2022/11/20 13:42:01;;;;;;;15.23;10.80;;;;;;;;;;5091337;28;20401;-67
2022/11/20 13:44:30;;;;;;;12.18;10.02;;;;;;;;;;5098283;28;20076;-68
2022/11/20 13:46:56;;;;;;;12.43;10.25;;;;;;;;;;5092961;28;20043;-67
2022/11/20 13:49:22;;;;;;;13.75;10.77;;;;;;;;;;5081544;28;20089;-67
2022/11/20 13:51:50;;;;;;;12.65;10.73;;;;;;;;;;5093567;28;20090;-67
2022/11/20 13:54:17;;;;;;;13.57;11.27;;;;;;;;;;5094424;28;20754;-66
2022/11/20 13:56:44;;;;;;;14.50;11.18;;;;;;;;;;5081636;28;20054;-68
2022/11/20 13:59:22;;;;;;;13.43;10.18;;;;;;;;;;5094285;28;20051;-67
2022/11/20 14:01:49;;;;;;;12.23;10.20;;;;;;;;;;5106590;27;20420;-67
2022/11/20 14:04:18;;;;;;;12.88;10.25;;;;;;;;;;5102637;27;20136;-68
2022/11/20 14:06:46;;;;;;;12.18;10.10;;;;;;;;;;5083993;28;20044;-67
2022/11/20 14:09:31;;;;;;;12.02;9.98;;;;;;;;;;5084832;28;20043;-68
2022/11/20 14:11:57;;;;;;;12.38;10.32;;;;;;;;;;5082663;28;20059;-67
2022/11/20 14:14:24;;;;;;;13.32;9.85;;;;;;;;;;5085707;28;20092;-66
2022/11/20 14:16:51;;;;;;;16.00;10.43;;;;;;;;;;5093818;27;20051;-67
2022/11/20 14:19:20;;;;;;;12.88;10.75;;;;;;;;;;5088077;28;20055;-67
2022/11/20 14:21:49;;;;;;;13.52;10.40;;;;;;;;;;5080256;28;20048;-67
2022/11/20 14:24:23;;;;;;;13.63;11.25;;;;;;;;;;5095759;28;20036;-67
2022/11/20 14:26:50;;;;;;;14.32;10.80;;;;;;;;;;5081149;27;20036;-68
2022/11/20 14:29:16;;;;;;;14.73;10.98;;;;;;;;;;5095837;28;20040;-69
2022/11/20 14:31:47;;;;;;;14.88;11.55;;;;;;;;;;5084646;28;20047;-66
2022/11/20 14:34:16;;;;;;;13.57;10.93;;;;;;;;;;5087016;28;20123;-67
2022/11/20 14:36:43;;;;;;;13.07;10.30;;;;;;;;;;5085641;28;20379;-67